YTEF/TEF METAR and TAF weather

Enter ICAO airport designator
Station Type Date Time Source
YTEF METAR 2020/09/19 05:00 UTC NOAA

YTEF 190500Z AUTO 31012KT 280V340 9999 // NCD 34/04 Q1010


Station Type Date Time Source
YTEF Decoded METAR 2020/09/19 05:00 UTC NOAA

Station name not available
Sep 19, 2020 - 01:00 AM EDT / 2020.09.19 0500 UTC
Wind: from the NW (310 degrees) at 14 MPH (12 KT) (direction variable):0
Visibility: greater than 7 mile(s):0
Temperature: 93 F (34 C)
Dew Point: 39 F (4 C)
Relative Humidity: 15%
Pressure (altimeter): 29.83 in. Hg (1010 hPa)
ob: YTEF 190500Z AUTO 31012KT 280V340 9999 // NCD 34/04 Q1010
cycle: 5

Station Type Date Time Source
YTEF TAF 2017/06/24 02:03 UTC NOAA

TAF TAF YTEF 240051Z 2402/2414 12005KT CAVOK
FM240500 33005KT 9999 -SHRA SCT060 BKN100

Example: see airport list